createdAt,value
2022-10-05T00:00:39.455Z,3.10
2022-10-05T00:01:39.540Z,3.30
2022-10-05T00:02:39.484Z,3.30
2022-10-05T00:03:39.443Z,3.50
2022-10-05T00:04:39.529Z,3.10
2022-10-05T00:05:39.394Z,3.10
2022-10-05T00:06:39.380Z,3.10
2022-10-05T00:07:39.375Z,2.90
2022-10-05T00:08:39.418Z,3.30
2022-10-05T00:09:39.348Z,3.30
2022-10-05T00:10:39.332Z,3.10
2022-10-05T00:11:39.336Z,3.00
2022-10-05T00:12:39.301Z,3.00
2022-10-05T00:13:39.299Z,3.40
2022-10-05T00:14:39.286Z,3.40
2022-10-05T00:15:39.266Z,3.20
2022-10-05T00:16:39.342Z,3.80
2022-10-05T00:17:39.241Z,3.60
2022-10-05T00:18:39.252Z,3.40
2022-10-05T00:19:39.218Z,3.10
2022-10-05T00:20:39.196Z,3.10
2022-10-05T00:21:39.228Z,3.10
2022-10-05T00:22:39.170Z,3.20
2022-10-05T00:23:39.160Z,3.30
2022-10-05T00:24:39.203Z,3.30
2022-10-05T00:25:39.133Z,3.20
2022-10-05T00:26:39.119Z,3.20
2022-10-05T00:27:39.112Z,3.00
2022-10-05T00:28:39.146Z,3.10
2022-10-05T00:29:39.087Z,3.20
2022-10-05T00:30:39.122Z,3.20
2022-10-05T00:31:39.185Z,3.00
2022-10-05T00:32:39.053Z,2.80
2022-10-05T00:33:39.034Z,2.90
2022-10-05T00:34:39.063Z,3.00
2022-10-05T00:35:39.018Z,2.90
2022-10-05T00:36:38.987Z,2.80
2022-10-05T00:37:38.981Z,3.00
2022-10-05T00:38:39.006Z,2.70
2022-10-05T00:39:38.963Z,3.10
2022-10-05T00:40:38.936Z,2.90
2022-10-05T00:41:38.923Z,3.00
2022-10-05T00:42:38.940Z,3.10
2022-10-05T00:43:38.898Z,3.30
2022-10-05T00:44:38.894Z,2.80
2022-10-05T00:45:38.931Z,2.70
2022-10-05T00:46:38.853Z,2.70
2022-10-05T00:47:38.851Z,2.60
2022-10-05T00:48:38.824Z,2.50
2022-10-05T00:49:38.815Z,2.50
2022-10-05T00:50:38.837Z,2.50
2022-10-05T00:51:38.791Z,2.50
2022-10-05T00:52:38.774Z,2.30
2022-10-05T00:53:38.763Z,2.20
2022-10-05T00:54:38.749Z,2.30
2022-10-05T00:55:38.741Z,2.10
2022-10-05T00:56:38.717Z,2.30
2022-10-05T00:57:38.707Z,1.90
2022-10-05T00:58:38.691Z,2.20
2022-10-05T00:59:38.681Z,1.90
2022-10-05T01:00:38.673Z,1.90
2022-10-05T01:01:38.717Z,1.70
2022-10-05T01:02:38.709Z,2.10
2022-10-05T01:03:38.622Z,1.60
2022-10-05T01:04:38.622Z,1.60
2022-10-05T01:05:38.610Z,2.00
2022-10-05T01:06:38.593Z,1.80
2022-10-05T01:07:38.578Z,1.90
2022-10-05T01:08:38.556Z,1.90
2022-10-05T01:09:38.546Z,1.80
2022-10-05T01:10:38.584Z,1.80
2022-10-05T01:11:38.561Z,1.90
2022-10-05T01:16:25.964Z,2.10
2022-10-05T01:17:26.939Z,1.90
2022-10-05T01:18:26.931Z,1.90
2022-10-05T01:19:26.706Z,1.70
2022-10-05T01:20:26.727Z,1.70
2022-10-05T01:21:26.674Z,2.00
2022-10-05T01:22:26.757Z,1.70
2022-10-05T01:23:26.624Z,1.70
2022-10-05T01:26:27.249Z,1.70
2022-10-05T01:27:19.708Z,2.10
2022-10-05T01:29:33.623Z,1.70
2022-10-05T01:36:05.415Z,1.60
2022-10-05T01:37:06.130Z,1.80
2022-10-05T01:38:06.077Z,1.60
2022-10-05T01:39:06.669Z,1.60
2022-10-05T01:40:06.314Z,1.60
2022-10-05T01:41:06.327Z,1.70
2022-10-05T01:42:07.002Z,1.60
2022-10-05T01:43:06.225Z,1.60
2022-10-05T01:54:20.934Z,1.40
2022-10-05T01:55:22.303Z,1.40
2022-10-05T01:56:20.854Z,1.40
2022-10-05T01:57:20.881Z,1.30
2022-10-05T01:58:20.750Z,1.40
2022-10-05T01:59:20.826Z,1.70
2022-10-05T02:00:20.773Z,1.40
2022-10-05T02:01:42.694Z,1.30
2022-10-05T02:02:20.786Z,1.10
2022-10-05T02:03:20.581Z,1.40
2022-10-05T02:04:42.728Z,1.50
2022-10-05T02:05:20.761Z,1.20
2022-10-05T02:06:20.512Z,1.50
2022-10-05T02:07:20.515Z,1.40
2022-10-05T02:08:20.473Z,1.30
2022-10-05T02:09:20.450Z,1.50
2022-10-05T02:10:20.481Z,1.40
2022-10-05T02:11:20.639Z,1.10
2022-10-05T02:16:49.937Z,1.40
2022-10-05T02:17:47.580Z,1.40
2022-10-05T02:18:48.501Z,1.60
2022-10-05T02:19:55.932Z,1.30
2022-10-05T02:20:47.389Z,1.10
2022-10-05T02:21:47.231Z,1.50
2022-10-05T02:22:48.415Z,1.10
2022-10-05T02:23:47.354Z,1.20
2022-10-05T02:25:02.128Z,1.20
2022-10-05T02:25:47.319Z,1.20
2022-10-05T02:26:58.034Z,1.10
2022-10-05T02:27:48.742Z,1.30
2022-10-05T02:30:16.826Z,1.70
2022-10-05T02:31:16.864Z,1.40
2022-10-05T02:32:16.917Z,1.10
2022-10-05T02:33:17.120Z,1.20
2022-10-05T02:35:47.767Z,0.90
2022-10-05T02:40:49.312Z,1.10
2022-10-05T02:42:54.178Z,1.40
2022-10-05T02:46:09.732Z,1.10
2022-10-05T02:47:11.110Z,1.30
2022-10-05T02:48:10.472Z,1.10
2022-10-05T02:49:10.302Z,1.40
2022-10-05T02:50:10.506Z,1.20
2022-10-05T02:51:10.279Z,1.10
2022-10-05T02:52:10.139Z,1.00
2022-10-05T02:53:10.238Z,1.20
2022-10-05T02:56:14.013Z,0.90
2022-10-05T02:57:14.585Z,0.90
2022-10-05T02:58:14.938Z,1.00
2022-10-05T02:59:14.589Z,1.00
2022-10-05T03:03:07.689Z,0.90
2022-10-05T03:04:08.618Z,0.90
2022-10-05T03:08:42.323Z,1.30
2022-10-05T03:09:41.016Z,1.10
2022-10-05T03:10:41.024Z,1.20
2022-10-05T03:11:40.909Z,1.10
2022-10-05T03:12:41.046Z,1.00
2022-10-05T03:13:40.901Z,0.90
2022-10-05T03:14:40.923Z,0.90
2022-10-05T03:15:40.844Z,0.90
2022-10-05T03:16:40.774Z,0.90
2022-10-05T03:17:40.857Z,1.20
2022-10-05T03:18:40.759Z,1.10
2022-10-05T03:19:40.963Z,1.20
2022-10-05T03:20:40.882Z,1.10
2022-10-05T03:23:00.816Z,0.90
2022-10-05T03:24:01.624Z,1.10
2022-10-05T03:25:01.755Z,1.40
2022-10-05T03:26:01.558Z,1.50
2022-10-05T03:27:01.524Z,1.00
2022-10-05T03:28:01.575Z,1.00
2022-10-05T03:29:02.418Z,0.80
2022-10-05T03:30:01.658Z,1.00
2022-10-05T03:31:01.599Z,0.70
2022-10-05T03:32:01.624Z,1.00
2022-10-05T03:33:10.554Z,1.30
2022-10-05T03:34:00.464Z,0.80
2022-10-05T03:35:01.418Z,0.80
2022-10-05T03:36:02.012Z,0.90
2022-10-05T03:37:01.414Z,1.00
2022-10-05T03:38:01.408Z,1.10
2022-10-05T03:39:02.070Z,1.30
2022-10-05T03:40:01.373Z,1.00
2022-10-05T03:41:01.445Z,1.10
2022-10-05T03:42:01.226Z,1.00
2022-10-05T03:43:01.324Z,0.80
2022-10-05T03:44:05.061Z,1.10
2022-10-05T03:45:02.354Z,1.10
2022-10-05T03:46:01.431Z,1.20
2022-10-05T03:49:00.863Z,1.10
2022-10-05T03:50:00.049Z,1.10
2022-10-05T03:53:09.374Z,1.20
2022-10-05T03:54:10.129Z,1.00
2022-10-05T03:55:09.909Z,1.10
2022-10-05T03:56:10.014Z,0.80
2022-10-05T03:57:10.431Z,1.00
2022-10-05T03:58:10.021Z,1.00
2022-10-05T03:59:09.988Z,1.10
2022-10-05T04:04:52.613Z,1.20
2022-10-05T04:05:53.489Z,1.30
2022-10-05T04:06:53.262Z,0.80
2022-10-05T04:07:53.292Z,0.70
2022-10-05T04:11:27.080Z,0.70
2022-10-05T04:12:27.919Z,0.70
2022-10-05T04:13:27.745Z,0.90
2022-10-05T04:14:29.213Z,0.90
2022-10-05T04:15:27.642Z,1.00
2022-10-05T04:16:29.264Z,0.80
2022-10-05T04:17:27.745Z,0.90
2022-10-05T04:22:19.876Z,0.70
2022-10-05T04:23:20.782Z,0.90
2022-10-05T04:24:20.506Z,0.60
2022-10-05T04:25:20.637Z,0.80
2022-10-05T04:26:20.655Z,0.70
2022-10-05T04:27:20.709Z,0.60
2022-10-05T04:28:28.326Z,0.80
2022-10-05T04:29:20.639Z,0.90
2022-10-05T04:30:38.291Z,0.80
2022-10-05T04:31:20.777Z,1.20
2022-10-05T04:32:20.700Z,1.10
2022-10-05T04:33:21.558Z,1.00
2022-10-05T04:34:19.909Z,0.90
2022-10-05T04:35:20.740Z,1.30
2022-10-05T04:36:20.499Z,1.30
2022-10-05T04:37:20.432Z,1.10
2022-10-05T04:38:20.541Z,1.00
2022-10-05T04:39:20.473Z,0.90
2022-10-05T04:40:20.471Z,1.00
2022-10-05T04:41:20.253Z,0.70
2022-10-05T04:42:28.269Z,0.70
2022-10-05T04:43:20.201Z,0.90
2022-10-05T04:44:20.347Z,1.00
2022-10-05T04:45:20.401Z,0.70
2022-10-05T04:46:30.612Z,1.10
2022-10-05T04:47:20.136Z,1.10
2022-10-05T04:48:20.104Z,0.90
2022-10-05T04:49:20.088Z,0.80
2022-10-05T04:50:20.069Z,0.80
2022-10-05T04:51:20.061Z,0.70
2022-10-05T04:52:20.066Z,0.70
2022-10-05T04:53:20.031Z,0.70
2022-10-05T04:54:20.030Z,0.70
2022-10-05T04:55:20.002Z,0.70
2022-10-05T04:56:19.989Z,0.70
2022-10-05T04:57:20.015Z,0.60
2022-10-05T04:58:19.962Z,0.90
2022-10-05T04:59:19.952Z,1.10
2022-10-05T05:00:19.946Z,0.60
2022-10-05T05:01:19.976Z,1.00
2022-10-05T05:02:19.914Z,1.10
2022-10-05T05:03:19.966Z,0.80
2022-10-05T05:04:19.885Z,1.00
2022-10-05T05:05:19.869Z,0.80
2022-10-05T05:06:19.864Z,0.90
2022-10-05T05:07:19.854Z,0.90
2022-10-05T05:08:19.835Z,1.00
2022-10-05T05:09:19.846Z,0.60
2022-10-05T05:10:19.799Z,1.10
2022-10-05T05:11:23.781Z,0.90
2022-10-05T05:12:19.778Z,1.80
2022-10-05T05:13:19.768Z,1.30
2022-10-05T05:14:19.750Z,1.60
2022-10-05T05:15:19.757Z,1.20
2022-10-05T05:16:19.774Z,1.60
2022-10-05T05:17:19.734Z,1.50
2022-10-05T05:18:19.704Z,1.20
2022-10-05T05:19:19.712Z,1.20
2022-10-05T05:20:19.676Z,0.90
2022-10-05T05:21:19.679Z,1.00
2022-10-05T05:22:19.672Z,1.00
2022-10-05T05:23:19.661Z,1.30
2022-10-05T05:24:19.634Z,0.90
2022-10-05T05:25:19.627Z,1.20
2022-10-05T05:26:19.619Z,1.20
2022-10-05T05:27:19.597Z,1.00
2022-10-05T05:28:19.631Z,0.90
2022-10-05T05:29:19.567Z,1.20
2022-10-05T05:30:19.558Z,0.80
2022-10-05T05:31:19.722Z,1.00
2022-10-05T05:32:19.539Z,1.10
2022-10-05T05:33:19.548Z,0.90
2022-10-05T05:34:19.511Z,0.60
2022-10-05T05:35:19.504Z,0.70
2022-10-05T05:36:23.079Z,0.90
2022-10-05T05:37:19.469Z,1.00
2022-10-05T05:38:19.481Z,0.60
2022-10-05T05:39:19.448Z,0.80
2022-10-05T05:40:36.434Z,0.70
2022-10-05T05:41:37.429Z,0.60
2022-10-05T05:42:37.416Z,0.60
2022-10-05T05:43:37.409Z,0.90
2022-10-05T05:44:38.956Z,0.80
2022-10-05T05:45:37.376Z,0.80
2022-10-05T05:46:58.728Z,0.70
2022-10-05T05:47:37.449Z,0.80
2022-10-05T05:48:37.339Z,0.70
2022-10-05T05:49:37.332Z,0.80
2022-10-05T05:50:37.321Z,0.60
2022-10-05T05:51:37.308Z,0.80
2022-10-05T05:52:37.303Z,0.70
2022-10-05T05:53:37.277Z,0.90
2022-10-05T05:54:37.266Z,0.60
2022-10-05T05:55:37.258Z,0.80
2022-10-05T05:56:37.239Z,0.70
2022-10-05T05:57:37.280Z,0.60
2022-10-05T05:58:37.217Z,0.50
2022-10-05T05:59:37.213Z,0.80
2022-10-05T06:00:37.206Z,0.80
2022-10-05T06:01:40.707Z,0.60
2022-10-05T06:02:37.297Z,0.70
2022-10-05T06:03:37.162Z,0.80
2022-10-05T06:04:37.143Z,0.90
2022-10-05T06:05:37.140Z,1.00
2022-10-05T06:06:37.133Z,1.10
2022-10-05T06:07:37.114Z,0.80
2022-10-05T06:08:37.094Z,0.70
2022-10-05T06:09:37.075Z,0.70
2022-10-05T06:10:37.079Z,0.80
2022-10-05T06:11:37.053Z,0.80
2022-10-05T06:12:37.060Z,0.90
2022-10-05T06:13:37.050Z,0.60
2022-10-05T06:14:37.019Z,0.70
2022-10-05T06:15:37.028Z,0.90
2022-10-05T06:16:37.127Z,0.90
2022-10-05T06:17:36.978Z,0.80
2022-10-05T06:18:36.981Z,0.80
2022-10-05T06:19:36.966Z,0.70
2022-10-05T06:20:36.950Z,1.00
2022-10-05T06:21:36.945Z,0.60
2022-10-05T06:22:36.920Z,0.80
2022-10-05T06:23:36.906Z,0.90
2022-10-05T06:24:36.961Z,1.00
2022-10-05T06:25:36.890Z,0.80
2022-10-05T06:26:36.891Z,1.00
2022-10-05T06:27:36.875Z,0.70
2022-10-05T06:28:36.923Z,0.80
2022-10-05T06:29:36.839Z,1.10
2022-10-05T06:30:36.824Z,0.90
2022-10-05T06:31:36.888Z,0.90
2022-10-05T06:32:36.808Z,1.10
2022-10-05T06:33:36.799Z,1.20
2022-10-05T06:34:36.775Z,1.10
2022-10-05T06:35:36.761Z,1.10
2022-10-05T06:36:36.762Z,1.20
2022-10-05T06:37:36.737Z,1.10
2022-10-05T06:38:36.734Z,1.20
2022-10-05T06:39:36.752Z,1.00
2022-10-05T06:40:36.715Z,1.10
2022-10-05T06:41:36.691Z,1.40
2022-10-05T06:42:36.679Z,1.00
2022-10-05T06:43:36.659Z,1.20
2022-10-05T06:44:36.674Z,1.00
2022-10-05T06:45:36.692Z,1.00
2022-10-05T06:46:36.627Z,1.30
2022-10-05T06:47:36.633Z,1.20
2022-10-05T06:48:36.592Z,1.10
2022-10-05T06:49:36.588Z,0.70
2022-10-05T06:50:36.584Z,0.90
2022-10-05T06:51:36.578Z,0.90
2022-10-05T06:52:36.561Z,1.10
2022-10-05T06:53:36.533Z,0.80
2022-10-05T06:54:36.519Z,0.80
2022-10-05T06:55:36.501Z,0.80
2022-10-05T06:56:36.507Z,0.50
2022-10-05T06:57:36.486Z,0.60
2022-10-05T06:58:36.470Z,0.30
2022-10-05T06:59:36.453Z,0.50
2022-10-05T07:00:36.450Z,0.80
2022-10-05T07:01:36.440Z,0.60
2022-10-05T07:02:36.480Z,0.70
2022-10-05T07:03:36.405Z,0.50
2022-10-05T07:04:37.225Z,0.60
2022-10-05T07:05:36.375Z,0.50
2022-10-05T07:06:36.375Z,0.50
2022-10-05T07:07:36.354Z,0.50
2022-10-05T07:08:36.327Z,0.70
2022-10-05T07:09:36.317Z,0.60
2022-10-05T07:10:36.307Z,0.50
2022-10-05T07:11:36.287Z,0.80
2022-10-05T07:12:36.286Z,0.70
2022-10-05T07:13:36.261Z,0.70
2022-10-05T07:14:36.263Z,0.90
2022-10-05T07:15:36.260Z,0.80
2022-10-05T07:16:36.300Z,0.90
2022-10-05T07:17:36.220Z,0.90
2022-10-05T07:18:36.231Z,1.10
2022-10-05T07:19:36.182Z,1.00
2022-10-05T07:20:36.169Z,1.20
2022-10-05T07:21:36.154Z,1.00
2022-10-05T07:22:36.160Z,0.80
2022-10-05T07:23:36.139Z,1.10
2022-10-05T07:24:36.127Z,0.90
2022-10-05T07:25:36.104Z,0.70
2022-10-05T07:26:36.095Z,1.10
2022-10-05T07:27:36.094Z,0.90
2022-10-05T07:28:36.198Z,0.80
2022-10-05T07:29:36.046Z,0.70
2022-10-05T07:30:36.113Z,0.90
2022-10-05T07:31:36.033Z,0.70
2022-10-05T07:32:36.024Z,0.80
2022-10-05T07:33:36.006Z,0.70
2022-10-05T07:34:35.991Z,0.80
2022-10-05T07:35:35.972Z,0.70
2022-10-05T07:36:35.963Z,0.70
2022-10-05T07:37:35.945Z,0.50
2022-10-05T07:38:35.949Z,0.40
2022-10-05T07:39:58.294Z,0.60
2022-10-05T07:40:35.919Z,0.60
2022-10-05T07:41:35.942Z,0.60
2022-10-05T07:42:41.751Z,0.90
2022-10-05T07:44:00.465Z,0.50
2022-10-05T07:44:35.869Z,0.90
2022-10-05T07:45:35.898Z,0.80
2022-10-05T07:46:35.842Z,0.90
2022-10-05T07:47:35.820Z,0.90
2022-10-05T07:48:35.827Z,0.70
2022-10-05T07:49:35.859Z,0.70
2022-10-05T07:50:35.793Z,0.70
2022-10-05T07:51:35.787Z,0.60
2022-10-05T07:52:35.774Z,0.80
2022-10-05T07:53:35.749Z,0.70
2022-10-05T07:54:35.732Z,0.90
2022-10-05T07:55:35.751Z,1.20
2022-10-05T07:56:35.712Z,0.90
2022-10-05T07:57:35.690Z,0.70
2022-10-05T07:58:35.709Z,0.70
2022-10-05T07:59:35.687Z,0.80
2022-10-05T08:00:35.654Z,1.60
2022-10-05T08:01:35.705Z,1.20
2022-10-05T08:02:35.697Z,1.70
2022-10-05T08:03:35.639Z,1.50
2022-10-05T08:04:40.741Z,1.20
2022-10-05T08:05:35.589Z,0.60
2022-10-05T08:06:35.576Z,0.50
2022-10-05T08:07:35.574Z,0.40
2022-10-05T08:08:35.549Z,0.60
2022-10-05T08:09:35.543Z,0.40
2022-10-05T08:10:35.514Z,0.60
2022-10-05T08:11:35.520Z,0.50
2022-10-05T08:12:35.486Z,0.50
2022-10-05T08:13:35.493Z,0.50
2022-10-05T08:14:35.467Z,0.60
2022-10-05T08:15:35.523Z,0.50
2022-10-05T08:16:35.441Z,0.50
2022-10-05T08:17:35.409Z,0.60
2022-10-05T08:18:35.401Z,0.40
2022-10-05T08:19:35.393Z,0.60
2022-10-05T08:20:35.380Z,0.60
2022-10-05T08:21:35.361Z,0.40
2022-10-05T08:22:35.355Z,0.50
2022-10-05T08:23:35.331Z,0.60
2022-10-05T08:24:35.343Z,0.50
2022-10-05T08:25:35.299Z,0.60
2022-10-05T08:26:35.302Z,0.60
2022-10-05T08:27:35.291Z,0.50
2022-10-05T08:28:35.332Z,0.70
2022-10-05T08:29:35.264Z,0.70
2022-10-05T08:30:35.245Z,0.60
2022-10-05T08:31:35.259Z,0.70
2022-10-05T08:32:35.207Z,0.70
2022-10-05T08:33:35.191Z,0.70
2022-10-05T08:34:35.190Z,0.70
2022-10-05T08:35:35.177Z,0.40
2022-10-05T08:36:35.152Z,0.60
2022-10-05T08:37:35.196Z,0.40
2022-10-05T08:38:35.126Z,0.50
2022-10-05T08:39:35.121Z,0.50
2022-10-05T08:40:35.091Z,0.70
2022-10-05T08:41:35.099Z,0.50
2022-10-05T08:42:35.067Z,0.70
2022-10-05T08:43:35.578Z,0.70
2022-10-05T08:44:35.053Z,0.60
2022-10-05T08:45:35.024Z,0.70
2022-10-05T08:46:35.069Z,0.60
2022-10-05T08:47:35.009Z,0.90
2022-10-05T08:48:35.003Z,0.60
2022-10-05T08:49:35.449Z,0.50
2022-10-05T08:50:34.960Z,0.80
2022-10-05T08:51:34.943Z,0.50
2022-10-05T08:52:34.929Z,0.80
2022-10-05T08:53:34.915Z,0.50
2022-10-05T08:54:34.917Z,0.40
2022-10-05T08:55:34.899Z,0.50
2022-10-05T08:56:34.887Z,0.50
2022-10-05T08:57:34.853Z,0.70
2022-10-05T08:58:34.840Z,0.50
2022-10-05T08:59:34.835Z,0.80
2022-10-05T09:00:34.836Z,0.70
2022-10-05T09:01:34.913Z,0.90
2022-10-05T09:02:34.874Z,0.80
2022-10-05T09:03:34.882Z,1.00
2022-10-05T09:04:34.772Z,1.10
2022-10-05T09:05:34.754Z,0.60
2022-10-05T09:06:34.745Z,0.80
2022-10-05T09:07:35.753Z,1.10
2022-10-05T09:08:34.710Z,0.90
2022-10-05T09:09:34.694Z,0.60
2022-10-05T09:10:34.701Z,0.40
2022-10-05T09:11:34.693Z,0.70
2022-10-05T09:12:34.653Z,0.50
2022-10-05T09:13:34.722Z,0.60
2022-10-05T09:14:34.662Z,0.40
2022-10-05T09:15:34.667Z,0.70
2022-10-05T09:16:34.605Z,0.70
2022-10-05T09:17:38.561Z,0.70
2022-10-05T09:18:34.580Z,0.60
2022-10-05T09:19:34.583Z,0.80
2022-10-05T09:20:34.565Z,0.60
2022-10-05T09:21:34.541Z,0.50
2022-10-05T09:22:34.542Z,0.50
2022-10-05T09:23:34.507Z,0.60
2022-10-05T09:24:34.502Z,0.60
2022-10-05T09:25:34.503Z,0.60
2022-10-05T09:26:34.471Z,0.60
2022-10-05T09:27:34.459Z,0.40
2022-10-05T09:28:34.539Z,0.50
2022-10-05T09:29:34.431Z,0.60
2022-10-05T09:30:34.444Z,0.50
2022-10-05T09:31:34.413Z,0.60
2022-10-05T09:32:34.400Z,0.60
2022-10-05T09:33:34.386Z,0.70
2022-10-05T09:34:34.379Z,0.70
2022-10-05T09:35:34.370Z,0.50
2022-10-05T09:36:34.352Z,0.60
2022-10-05T09:37:34.334Z,0.50
2022-10-05T09:38:34.320Z,0.50
2022-10-05T09:39:34.314Z,0.50
2022-10-05T09:40:34.286Z,0.60
2022-10-05T09:41:34.279Z,0.50
2022-10-05T09:42:34.262Z,0.60
2022-10-05T09:43:34.259Z,0.40
2022-10-05T09:44:34.231Z,0.50
2022-10-05T09:45:34.226Z,0.60
2022-10-05T09:46:34.269Z,0.90
2022-10-05T09:47:34.198Z,0.40
2022-10-05T09:48:34.184Z,0.70
2022-10-05T09:49:34.162Z,0.50
2022-10-05T09:50:34.162Z,0.50
2022-10-05T09:51:34.154Z,0.50
2022-10-05T09:52:34.126Z,0.50
2022-10-05T09:53:34.117Z,0.60
2022-10-05T09:54:34.108Z,0.60
2022-10-05T09:55:34.090Z,0.70
2022-10-05T09:56:34.092Z,0.60
2022-10-05T09:57:34.054Z,0.70
2022-10-05T09:58:34.057Z,0.90
2022-10-05T09:59:34.051Z,0.50
2022-10-05T10:00:34.021Z,0.80
2022-10-05T10:01:44.687Z,0.60
2022-10-05T10:02:34.158Z,0.70
2022-10-05T10:03:34.050Z,0.80
2022-10-05T10:04:33.974Z,0.80
2022-10-05T10:05:33.957Z,0.70
2022-10-05T10:06:33.962Z,0.50
2022-10-05T10:07:33.949Z,0.80
2022-10-05T10:08:33.918Z,0.70
2022-10-05T10:09:37.876Z,0.70
2022-10-05T10:10:33.892Z,0.40
2022-10-05T10:11:33.885Z,0.50
2022-10-05T10:12:33.880Z,0.60
2022-10-05T10:13:33.861Z,0.80
2022-10-05T10:14:33.841Z,0.60
2022-10-05T10:15:33.863Z,0.60
2022-10-05T10:16:33.833Z,0.60
2022-10-05T10:17:33.815Z,0.70
2022-10-05T10:18:33.788Z,0.50
2022-10-05T10:19:33.789Z,0.60
2022-10-05T10:20:33.765Z,0.70
2022-10-05T10:21:33.768Z,0.60
2022-10-05T10:22:33.754Z,0.70
2022-10-05T10:23:33.731Z,0.60
2022-10-05T10:24:33.715Z,0.70
2022-10-05T10:25:33.715Z,0.50
2022-10-05T10:26:33.684Z,0.50
2022-10-05T10:27:33.702Z,0.50
2022-10-05T10:28:33.744Z,0.80
2022-10-05T10:29:33.651Z,0.70
2022-10-05T10:30:36.384Z,0.70
2022-10-05T10:31:33.814Z,0.70
2022-10-05T10:32:33.616Z,0.50
2022-10-05T10:33:33.601Z,0.40
2022-10-05T10:34:33.588Z,0.60
2022-10-05T10:35:33.590Z,0.50
2022-10-05T10:36:33.557Z,0.70
2022-10-05T10:37:33.563Z,0.60
2022-10-05T10:38:33.542Z,0.70
2022-10-05T10:39:33.521Z,0.60
2022-10-05T10:40:33.514Z,0.80
2022-10-05T10:41:33.498Z,0.70
2022-10-05T10:42:33.497Z,0.70
2022-10-05T10:43:33.506Z,0.60
2022-10-05T10:44:33.459Z,0.70
2022-10-05T10:45:33.452Z,0.80
2022-10-05T10:46:33.561Z,0.60
2022-10-05T10:47:33.419Z,0.60
2022-10-05T10:48:33.430Z,0.50
2022-10-05T10:49:33.389Z,0.40
2022-10-05T10:50:33.379Z,0.50
2022-10-05T10:51:33.391Z,0.40
2022-10-05T10:52:33.362Z,0.40
2022-10-05T10:53:33.344Z,0.50
2022-10-05T10:54:33.343Z,0.40
2022-10-05T10:55:33.310Z,0.40
2022-10-05T10:56:33.302Z,0.70
2022-10-05T10:57:33.289Z,0.70
2022-10-05T10:58:33.285Z,0.40
2022-10-05T10:59:33.259Z,0.40
2022-10-05T11:00:33.254Z,0.80
2022-10-05T11:01:33.329Z,0.90
2022-10-05T11:02:33.317Z,0.50
2022-10-05T11:03:33.214Z,0.60
2022-10-05T11:04:33.189Z,0.60
2022-10-05T11:05:33.192Z,0.90
2022-10-05T11:06:33.158Z,0.60
2022-10-05T11:07:33.160Z,0.40
2022-10-05T11:08:33.148Z,1.00
2022-10-05T11:09:33.119Z,0.70
2022-10-05T11:10:33.142Z,0.50
2022-10-05T11:11:33.096Z,0.70
2022-10-05T11:12:34.683Z,0.50
2022-10-05T11:13:33.078Z,0.50
2022-10-05T11:14:33.070Z,0.70
2022-10-05T11:15:33.100Z,0.60
2022-10-05T11:16:33.124Z,0.70
2022-10-05T11:17:33.015Z,0.70
2022-10-05T11:18:33.707Z,0.60
2022-10-05T11:19:40.154Z,0.60
2022-10-05T11:20:33.029Z,0.90
2022-10-05T11:21:33.947Z,0.60
2022-10-05T11:22:32.949Z,0.80
2022-10-05T11:23:38.646Z,0.60
2022-10-05T11:24:32.948Z,0.70
2022-10-05T11:25:32.923Z,0.90
2022-10-05T11:26:32.896Z,0.80
2022-10-05T11:27:32.894Z,0.50
2022-10-05T11:28:32.941Z,0.50
2022-10-05T11:29:32.879Z,0.50
2022-10-05T11:30:32.844Z,0.50
2022-10-05T11:31:32.892Z,0.70
2022-10-05T11:32:32.837Z,0.60
2022-10-05T11:33:32.817Z,0.50
2022-10-05T11:34:32.795Z,0.40
2022-10-05T11:35:32.774Z,0.70
2022-10-05T11:36:32.758Z,0.70
2022-10-05T11:37:32.749Z,0.70
2022-10-05T11:38:33.538Z,0.60
2022-10-05T11:39:32.727Z,0.60
2022-10-05T11:40:32.740Z,0.40
2022-10-05T11:41:32.718Z,0.50
2022-10-05T11:42:32.690Z,0.30
2022-10-05T11:43:32.677Z,0.60
2022-10-05T11:44:32.663Z,0.90
2022-10-05T11:45:33.215Z,0.90
2022-10-05T11:46:32.685Z,0.40
2022-10-05T11:47:32.619Z,0.60
2022-10-05T11:48:32.594Z,0.50
2022-10-05T11:49:32.591Z,0.50
2022-10-05T11:50:32.579Z,0.50
2022-10-05T11:51:32.559Z,0.60
2022-10-05T11:52:32.539Z,0.80
2022-10-05T11:53:32.527Z,0.60
2022-10-05T11:54:41.954Z,0.30
2022-10-05T11:55:32.527Z,0.70
2022-10-05T11:56:32.517Z,0.50
2022-10-05T11:57:32.513Z,0.60
2022-10-05T11:58:32.456Z,0.60
2022-10-05T11:59:32.464Z,0.40
2022-10-05T12:00:32.545Z,0.60
2022-10-05T12:01:32.423Z,0.50
2022-10-05T12:02:32.474Z,0.70
2022-10-05T12:03:32.536Z,0.70
2022-10-05T12:04:32.382Z,0.60
2022-10-05T12:05:32.411Z,0.60
2022-10-05T12:06:32.358Z,0.50
2022-10-05T12:07:32.354Z,0.40
2022-10-05T12:08:32.333Z,0.50
2022-10-05T12:09:32.319Z,0.70
2022-10-05T12:10:32.301Z,0.70
2022-10-05T12:11:32.299Z,0.50
2022-10-05T12:12:32.269Z,0.40
2022-10-05T12:13:32.272Z,0.60
2022-10-05T12:14:32.255Z,0.50
2022-10-05T12:15:32.233Z,0.60
2022-10-05T12:16:32.240Z,0.60
2022-10-05T12:17:32.228Z,0.70
2022-10-05T12:18:32.215Z,0.80
2022-10-05T12:19:32.184Z,0.80
2022-10-05T12:20:32.215Z,0.70
2022-10-05T12:21:32.171Z,0.60
2022-10-05T12:22:32.160Z,0.70
2022-10-05T12:23:32.131Z,0.40
2022-10-05T12:24:32.136Z,0.50
2022-10-05T12:25:32.116Z,0.50
2022-10-05T12:26:32.096Z,0.80
2022-10-05T12:27:32.089Z,0.70
2022-10-05T12:28:32.117Z,0.40
2022-10-05T12:29:32.106Z,0.80
2022-10-05T12:30:32.042Z,0.60
2022-10-05T12:31:32.153Z,0.90
2022-10-05T12:32:32.008Z,0.60
2022-10-05T12:33:32.026Z,1.00
2022-10-05T12:34:31.993Z,0.50
2022-10-05T12:35:47.490Z,0.50
2022-10-05T12:36:59.241Z,0.40
2022-10-05T12:37:31.965Z,0.60
2022-10-05T12:38:31.955Z,0.60
2022-10-05T12:39:31.924Z,0.60
2022-10-05T12:40:31.905Z,0.40
2022-10-05T12:41:32.206Z,0.70
2022-10-05T12:42:31.901Z,0.60
2022-10-05T12:43:31.870Z,0.40
2022-10-05T12:44:31.864Z,0.50
2022-10-05T12:45:31.880Z,0.60
2022-10-05T12:46:31.858Z,0.50
2022-10-05T12:47:31.825Z,0.40
2022-10-05T12:48:31.822Z,0.50
2022-10-05T12:49:31.792Z,0.60
2022-10-05T12:50:31.779Z,0.70
2022-10-05T12:51:31.800Z,0.80
2022-10-05T12:52:31.750Z,0.70
2022-10-05T12:53:31.747Z,0.80
2022-10-05T12:54:31.755Z,0.40
2022-10-05T12:55:31.731Z,0.80
2022-10-05T12:56:31.712Z,0.50
2022-10-05T12:57:31.787Z,0.50
2022-10-05T12:58:31.688Z,0.50
2022-10-05T12:59:31.672Z,0.50
2022-10-05T13:00:31.730Z,0.50
2022-10-05T13:01:31.658Z,0.50
2022-10-05T13:02:31.638Z,0.40
2022-10-05T13:03:31.610Z,0.30
2022-10-05T13:04:31.620Z,0.50
2022-10-05T13:05:31.710Z,0.40
2022-10-05T13:06:32.777Z,0.50
2022-10-05T13:07:31.569Z,0.90
2022-10-05T13:08:31.546Z,0.70
2022-10-05T13:09:31.561Z,0.60
2022-10-05T13:10:31.540Z,0.70
2022-10-05T13:11:31.592Z,0.50
2022-10-05T13:12:31.518Z,0.80
2022-10-05T13:13:31.475Z,0.60
2022-10-05T13:14:38.718Z,0.70
2022-10-05T13:15:31.456Z,0.80
2022-10-05T13:16:31.497Z,0.50
2022-10-05T13:17:32.069Z,0.80
2022-10-05T13:18:31.435Z,0.70
2022-10-05T13:19:31.407Z,0.60
2022-10-05T13:20:31.383Z,0.50
2022-10-05T13:21:31.401Z,0.40
2022-10-05T13:22:31.376Z,0.70
2022-10-05T13:23:31.398Z,0.70
2022-10-05T13:24:31.374Z,0.70
2022-10-05T13:25:31.326Z,0.60
2022-10-05T13:26:31.311Z,0.50
2022-10-05T13:27:31.303Z,0.40
2022-10-05T13:28:31.331Z,0.30
2022-10-05T13:29:31.269Z,0.60
2022-10-05T13:30:31.255Z,0.70
2022-10-05T13:31:31.288Z,0.60
2022-10-05T13:32:31.244Z,0.60
2022-10-05T13:33:31.229Z,0.50
2022-10-05T13:34:31.202Z,0.50
2022-10-05T13:35:31.222Z,0.90
2022-10-05T13:36:31.174Z,0.60
2022-10-05T13:37:31.177Z,0.50
2022-10-05T13:38:31.160Z,0.50
2022-10-05T13:39:31.145Z,0.80
2022-10-05T13:40:31.120Z,0.90
2022-10-05T13:41:31.153Z,0.70
2022-10-05T13:42:31.104Z,0.80
2022-10-05T13:43:31.112Z,0.80
2022-10-05T13:44:31.065Z,0.50
2022-10-05T13:45:31.148Z,0.60
2022-10-05T13:46:31.071Z,0.50
2022-10-05T13:47:31.044Z,0.80
2022-10-05T13:48:31.015Z,0.60
2022-10-05T13:49:30.999Z,0.50
2022-10-05T13:50:33.450Z,0.60
2022-10-05T13:51:30.997Z,0.50
2022-10-05T13:52:30.961Z,0.60
2022-10-05T13:53:30.959Z,0.60
2022-10-05T13:54:30.936Z,0.60
2022-10-05T13:55:30.931Z,0.60
2022-10-05T13:56:30.922Z,0.70
2022-10-05T13:57:30.898Z,0.70
2022-10-05T13:58:30.958Z,0.50
2022-10-05T13:59:30.872Z,0.30
2022-10-05T14:00:30.857Z,1.00
2022-10-05T14:01:30.848Z,0.80
2022-10-05T14:02:30.888Z,1.00
2022-10-05T14:03:30.864Z,0.50
2022-10-05T14:04:30.806Z,0.50
2022-10-05T14:05:30.803Z,0.50
2022-10-05T14:06:30.789Z,0.80
2022-10-05T14:07:30.785Z,0.90
2022-10-05T14:08:30.814Z,0.60
2022-10-05T14:09:30.743Z,0.90
2022-10-05T14:10:30.729Z,0.80
2022-10-05T14:11:30.719Z,0.80
2022-10-05T14:12:30.699Z,0.80
2022-10-05T14:13:30.704Z,0.40
2022-10-05T14:14:30.688Z,0.50
2022-10-05T14:15:30.665Z,0.40
2022-10-05T14:16:30.696Z,0.80
2022-10-05T14:17:32.933Z,0.80
2022-10-05T14:18:30.628Z,1.10
2022-10-05T14:19:30.613Z,0.90
2022-10-05T14:20:30.595Z,0.90
2022-10-05T14:21:30.609Z,0.60